Time;durP1;ratioP1;P1;durP2;ratioP2;P2;SDS_P1;SDS_P2;PMS_P1;PMS_P2;Temp;Humidity;BMP_temperature;BMP_pressure;BME280_temperature;BME280_humidity;BME280_pressure;Samples;Min_cycle;Max_cycle;Signal;HPM_P1;HPM_P2
2021/09/13 00:02:08;;;;;;;9.38;8.77;;;;;;;;;;5107280;28;24551;-61
2021/09/13 00:04:34;;;;;;;10.13;9.43;;;;;;;;;;5099082;28;25006;-62
2021/09/13 00:06:59;;;;;;;9.07;8.37;;;;;;;;;;5092590;28;24511;-60
2021/09/13 00:09:24;;;;;;;8.25;7.65;;;;;;;;;;5101035;28;24437;-60
2021/09/13 00:11:50;;;;;;;8.43;7.83;;;;;;;;;;5099954;28;24429;-61
2021/09/13 00:14:15;;;;;;;9.32;8.52;;;;;;;;;;5107809;28;24541;-60
2021/09/13 00:16:41;;;;;;;9.30;8.70;;;;;;;;;;5104062;28;24409;-60
2021/09/13 00:19:06;;;;;;;9.43;8.73;;;;;;;;;;5105718;28;24422;-60
2021/09/13 00:21:31;;;;;;;9.00;8.30;;;;;;;;;;5104881;28;24414;-60
2021/09/13 00:23:56;;;;;;;8.80;8.10;;;;;;;;;;5107665;27;24414;-60
2021/09/13 00:26:21;;;;;;;8.90;8.30;;;;;;;;;;5108629;28;24410;-60
2021/09/13 00:28:46;;;;;;;9.50;8.70;;;;;;;;;;5106666;28;24425;-59
2021/09/13 00:31:12;;;;;;;8.55;7.95;;;;;;;;;;5106828;28;24457;-60
2021/09/13 00:33:37;;;;;;;8.60;8.00;;;;;;;;;;5109994;28;24757;-60
2021/09/13 00:36:02;;;;;;;9.70;8.90;;;;;;;;;;5108289;27;24451;-60
2021/09/13 00:38:28;;;;;;;9.57;8.88;;;;;;;;;;5108959;28;24424;-60
2021/09/13 00:40:53;;;;;;;8.90;8.30;;;;;;;;;;5104740;28;24847;-60
2021/09/13 00:43:18;;;;;;;8.60;8.00;;;;;;;;;;5109389;28;24413;-60
2021/09/13 00:45:43;;;;;;;9.00;8.20;;;;;;;;;;5106764;28;24963;-60
2021/09/13 00:48:08;;;;;;;9.10;8.40;;;;;;;;;;5109307;28;24472;-59
2021/09/13 00:50:34;;;;;;;8.60;8.00;;;;;;;;;;5105925;28;24438;-60
2021/09/13 00:52:59;;;;;;;8.75;8.15;;;;;;;;;;5104849;28;24401;-60
2021/09/13 00:55:24;;;;;;;9.10;8.40;;;;;;;;;;5098065;27;24427;-59
2021/09/13 00:57:51;;;;;;;9.00;8.30;;;;;;;;;;5107284;28;24409;-59
2021/09/13 01:00:16;;;;;;;9.55;8.75;;;;;;;;;;5103391;28;24425;-60
2021/09/13 01:02:41;;;;;;;8.15;7.55;;;;;;;;;;5105251;28;24405;-59
2021/09/13 01:05:07;;;;;;;8.57;7.97;;;;;;;;;;5102934;28;24412;-59
2021/09/13 01:07:33;;;;;;;8.60;8.00;;;;;;;;;;5110189;27;24410;-60
2021/09/13 01:09:58;;;;;;;8.47;7.77;;;;;;;;;;5107602;28;24553;-59
2021/09/13 01:12:24;;;;;;;8.20;7.60;;;;;;;;;;5107498;28;24417;-59
2021/09/13 01:14:49;;;;;;;9.00;8.30;;;;;;;;;;5105319;28;24422;-60
2021/09/13 01:17:14;;;;;;;8.30;7.70;;;;;;;;;;5113430;27;24481;-60
2021/09/13 01:19:39;;;;;;;8.35;7.75;;;;;;;;;;5106490;28;25006;-60
2021/09/13 01:22:04;;;;;;;7.90;7.30;;;;;;;;;;5108018;28;24420;-60
2021/09/13 01:24:30;;;;;;;8.10;7.50;;;;;;;;;;5108664;28;24647;-60
2021/09/13 01:27:00;;;;;;;8.05;7.55;;;;;;;;;;5104825;27;24955;-60
2021/09/13 01:29:26;;;;;;;8.20;7.60;;;;;;;;;;5108078;28;24510;-60
2021/09/13 01:31:51;;;;;;;8.33;7.73;;;;;;;;;;5105702;28;24417;-60
2021/09/13 01:34:16;;;;;;;8.02;7.43;;;;;;;;;;5106934;28;24416;-60
2021/09/13 01:36:41;;;;;;;7.47;6.97;;;;;;;;;;5108379;27;24513;-59
2021/09/13 01:39:06;;;;;;;7.20;6.70;;;;;;;;;;5108724;28;24768;-60
2021/09/13 01:41:31;;;;;;;7.68;7.15;;;;;;;;;;5107280;28;24416;-60
2021/09/13 01:43:56;;;;;;;8.18;7.38;;;;;;;;;;5108167;28;24422;-60
2021/09/13 01:46:22;;;;;;;8.10;7.50;;;;;;;;;;5107070;28;24829;-60
2021/09/13 01:48:47;;;;;;;7.97;7.37;;;;;;;;;;5109773;27;24510;-60
2021/09/13 01:51:12;;;;;;;6.95;6.45;;;;;;;;;;5105261;28;24425;-60
2021/09/13 01:53:37;;;;;;;7.70;7.10;;;;;;;;;;5107596;28;24474;-60
2021/09/13 01:56:02;;;;;;;8.00;7.30;;;;;;;;;;5105704;28;24434;-60
2021/09/13 01:58:27;;;;;;;7.30;6.80;;;;;;;;;;5111684;27;24520;-60
2021/09/13 02:00:52;;;;;;;7.10;6.60;;;;;;;;;;5104171;28;24830;-60
2021/09/13 02:03:18;;;;;;;7.40;6.80;;;;;;;;;;5106158;28;24421;-60
2021/09/13 02:05:43;;;;;;;7.10;6.60;;;;;;;;;;5107114;28;24817;-60
2021/09/13 02:08:08;;;;;;;7.15;6.65;;;;;;;;;;5101326;27;24417;-59
2021/09/13 02:10:33;;;;;;;8.70;8.00;;;;;;;;;;5108139;28;24410;-60
2021/09/13 02:12:58;;;;;;;7.72;7.20;;;;;;;;;;5107651;28;24414;-60
2021/09/13 02:15:23;;;;;;;7.88;7.38;;;;;;;;;;5103057;28;24425;-59
2021/09/13 02:17:50;;;;;;;7.30;6.80;;;;;;;;;;5103128;28;25213;-59
2021/09/13 02:20:15;;;;;;;7.30;6.80;;;;;;;;;;5106452;28;25073;-59
2021/09/13 02:22:40;;;;;;;7.70;7.13;;;;;;;;;;5102149;28;24425;-59
2021/09/13 02:25:06;;;;;;;7.60;7.00;;;;;;;;;;5106812;28;24515;-59
2021/09/13 02:27:31;;;;;;;7.63;7.13;;;;;;;;;;5105600;28;24895;-59
2021/09/13 02:29:56;;;;;;;7.53;7.03;;;;;;;;;;5107342;28;24429;-59
2021/09/13 02:32:21;;;;;;;7.43;6.93;;;;;;;;;;5102452;28;24547;-59
2021/09/13 02:34:46;;;;;;;7.30;6.80;;;;;;;;;;5105668;28;24959;-59
2021/09/13 02:37:11;;;;;;;6.83;6.40;;;;;;;;;;5096951;28;24414;-59
2021/09/13 02:39:37;;;;;;;7.10;6.60;;;;;;;;;;5103218;28;24413;-59
2021/09/13 02:42:02;;;;;;;6.72;6.32;;;;;;;;;;5107242;28;24470;-59
2021/09/13 02:44:27;;;;;;;7.37;6.77;;;;;;;;;;5100028;28;24417;-59
2021/09/13 02:46:52;;;;;;;7.10;6.60;;;;;;;;;;5105280;28;24471;-59
2021/09/13 02:49:17;;;;;;;7.30;6.80;;;;;;;;;;5106767;28;24461;-58
2021/09/13 02:51:43;;;;;;;6.50;6.10;;;;;;;;;;5105714;27;24429;-59
2021/09/13 02:54:08;;;;;;;6.93;6.43;;;;;;;;;;5096674;28;24778;-59
2021/09/13 02:56:33;;;;;;;6.13;5.73;;;;;;;;;;5106652;28;24429;-59
2021/09/13 02:58:58;;;;;;;6.60;6.10;;;;;;;;;;5106807;28;24428;-59
2021/09/13 03:01:23;;;;;;;6.22;5.72;;;;;;;;;;5104970;27;24425;-58
2021/09/13 03:03:48;;;;;;;6.67;6.23;;;;;;;;;;5104255;28;24433;-59
2021/09/13 03:06:14;;;;;;;6.70;6.20;;;;;;;;;;5104128;28;24421;-59
2021/09/13 03:08:39;;;;;;;6.80;6.30;;;;;;;;;;5105346;28;24437;-59
2021/09/13 03:11:04;;;;;;;5.90;5.50;;;;;;;;;;5106341;28;24410;-59
2021/09/13 03:13:29;;;;;;;5.80;5.30;;;;;;;;;;5107482;28;24977;-59
2021/09/13 03:15:55;;;;;;;6.20;5.80;;;;;;;;;;5116420;28;25062;-59
2021/09/13 03:18:20;;;;;;;6.00;5.60;;;;;;;;;;5127247;28;24409;-59
2021/09/13 03:20:45;;;;;;;6.53;6.07;;;;;;;;;;5121433;28;24506;-59
2021/09/13 03:23:10;;;;;;;6.60;6.10;;;;;;;;;;5109460;28;24794;-59
2021/09/13 03:25:35;;;;;;;6.20;5.80;;;;;;;;;;5115864;28;24401;-59
2021/09/13 03:28:00;;;;;;;6.40;6.00;;;;;;;;;;5106924;28;24429;-59
2021/09/13 03:30:26;;;;;;;6.70;6.20;;;;;;;;;;5108169;28;24790;-58
2021/09/13 03:32:51;;;;;;;6.13;5.73;;;;;;;;;;5115304;28;24405;-59
2021/09/13 03:35:16;;;;;;;5.60;5.20;;;;;;;;;;5115907;28;24552;-59
2021/09/13 03:37:41;;;;;;;6.20;5.80;;;;;;;;;;5103249;28;24509;-59
2021/09/13 03:40:06;;;;;;;6.73;6.27;;;;;;;;;;5105093;28;24711;-59
2021/09/13 03:42:32;;;;;;;5.87;5.47;;;;;;;;;;5106126;28;24660;-59
2021/09/13 03:44:57;;;;;;;6.50;6.00;;;;;;;;;;5104473;28;24479;-59
2021/09/13 03:47:22;;;;;;;6.20;5.80;;;;;;;;;;5097640;28;24936;-59
2021/09/13 03:49:47;;;;;;;5.93;5.53;;;;;;;;;;5103924;28;24475;-59
2021/09/13 03:52:12;;;;;;;6.40;6.00;;;;;;;;;;5093213;28;24434;-59
2021/09/13 03:54:38;;;;;;;6.20;5.80;;;;;;;;;;5101195;28;24409;-59
2021/09/13 03:57:04;;;;;;;6.90;6.40;;;;;;;;;;5103896;28;24470;-59
2021/09/13 03:59:29;;;;;;;5.93;5.53;;;;;;;;;;5107895;28;24414;-59
2021/09/13 04:01:54;;;;;;;6.10;5.70;;;;;;;;;;5107470;28;24498;-59
2021/09/13 04:04:23;;;;;;;6.30;5.90;;;;;;;;;;5109689;27;24517;-59
2021/09/13 04:06:53;;;;;;;6.00;5.60;;;;;;;;;;5102536;28;24662;-59
2021/09/13 04:11:55;;;;;;;6.60;6.10;;;;;;;;;;5103848;28;24470;-59
2021/09/13 04:14:24;;;;;;;6.70;6.10;;;;;;;;;;5085745;28;24430;-59
2021/09/13 04:16:50;;;;;;;6.70;6.20;;;;;;;;;;5104327;28;24440;-59
2021/09/13 04:19:15;;;;;;;6.53;6.07;;;;;;;;;;5100317;28;25043;-59
2021/09/13 04:21:40;;;;;;;6.28;5.88;;;;;;;;;;5105427;28;24412;-59
2021/09/13 04:24:06;;;;;;;6.13;5.72;;;;;;;;;;5103999;28;24548;-58
2021/09/13 04:26:31;;;;;;;5.30;5.00;;;;;;;;;;5109477;27;24417;-59
2021/09/13 04:28:56;;;;;;;5.93;5.53;;;;;;;;;;5104597;28;24430;-59
2021/09/13 04:31:21;;;;;;;5.90;5.50;;;;;;;;;;5109478;28;24470;-59
2021/09/13 04:33:47;;;;;;;6.18;5.75;;;;;;;;;;5103264;28;24982;-59
2021/09/13 04:36:12;;;;;;;6.45;6.03;;;;;;;;;;5094248;27;25093;-59
2021/09/13 04:38:37;;;;;;;6.17;5.67;;;;;;;;;;5103340;28;24525;-59
2021/09/13 04:41:02;;;;;;;5.43;5.03;;;;;;;;;;5099287;28;24505;-59
2021/09/13 04:43:28;;;;;;;6.68;6.18;;;;;;;;;;5099364;27;24526;-59
2021/09/13 04:45:53;;;;;;;6.50;6.00;;;;;;;;;;5103399;28;24486;-59
2021/09/13 04:48:18;;;;;;;6.60;6.10;;;;;;;;;;5106459;28;24432;-59
2021/09/13 04:50:43;;;;;;;6.73;6.23;;;;;;;;;;5101237;28;24495;-59
2021/09/13 04:53:08;;;;;;;6.60;6.10;;;;;;;;;;5100863;27;24437;-59
2021/09/13 04:55:35;;;;;;;5.67;5.27;;;;;;;;;;5102828;28;24984;-59
2021/09/13 04:58:00;;;;;;;6.23;5.83;;;;;;;;;;5091758;28;25065;-59
2021/09/13 05:00:25;;;;;;;6.27;5.87;;;;;;;;;;5105697;28;24509;-59
2021/09/13 05:02:50;;;;;;;6.13;5.72;;;;;;;;;;5104336;28;24574;-59
2021/09/13 05:05:15;;;;;;;5.85;5.45;;;;;;;;;;5103992;28;24436;-59
2021/09/13 05:07:41;;;;;;;6.60;6.10;;;;;;;;;;5098802;28;24436;-59
2021/09/13 05:10:06;;;;;;;5.32;5.03;;;;;;;;;;5091850;28;24449;-59
2021/09/13 05:12:31;;;;;;;5.70;5.30;;;;;;;;;;5105184;27;24425;-59
2021/09/13 05:14:56;;;;;;;5.80;5.40;;;;;;;;;;5096081;27;24586;-59
2021/09/13 05:17:21;;;;;;;6.07;5.57;;;;;;;;;;5098970;28;24410;-59
2021/09/13 05:19:47;;;;;;;6.13;5.73;;;;;;;;;;5105521;28;24413;-59
2021/09/13 05:22:12;;;;;;;5.83;5.43;;;;;;;;;;5101602;28;24555;-58
2021/09/13 05:24:37;;;;;;;6.10;5.70;;;;;;;;;;5099398;27;24409;-59
2021/09/13 05:27:02;;;;;;;5.60;5.20;;;;;;;;;;5100774;28;24477;-59
2021/09/13 05:29:27;;;;;;;5.50;5.10;;;;;;;;;;5103582;28;24940;-59
2021/09/13 05:31:53;;;;;;;5.68;5.28;;;;;;;;;;5108142;28;24412;-59
2021/09/13 05:34:18;;;;;;;6.60;6.10;;;;;;;;;;5109096;27;24410;-59
2021/09/13 05:36:43;;;;;;;6.03;5.63;;;;;;;;;;5108437;28;24417;-59
2021/09/13 05:39:08;;;;;;;7.10;6.60;;;;;;;;;;5108757;28;24404;-58
2021/09/13 05:41:33;;;;;;;6.90;6.30;;;;;;;;;;5108801;28;24565;-58
2021/09/13 05:43:58;;;;;;;5.80;5.40;;;;;;;;;;5108995;27;24485;-59
2021/09/13 05:46:24;;;;;;;6.10;5.60;;;;;;;;;;5108360;28;24446;-59
2021/09/13 05:48:49;;;;;;;6.03;5.53;;;;;;;;;;5099038;28;24549;-58
2021/09/13 05:51:14;;;;;;;6.80;6.30;;;;;;;;;;5089044;28;24484;-58
2021/09/13 05:53:39;;;;;;;5.60;5.20;;;;;;;;;;5115436;27;24405;-59
2021/09/13 05:56:04;;;;;;;5.32;4.93;;;;;;;;;;5105535;27;25058;-59
2021/09/13 05:58:29;;;;;;;5.90;5.50;;;;;;;;;;5102097;28;24429;-59
2021/09/13 06:00:55;;;;;;;6.30;5.90;;;;;;;;;;5103963;28;24412;-59
2021/09/13 06:03:20;;;;;;;7.00;6.50;;;;;;;;;;5104541;28;24897;-59
2021/09/13 06:05:45;;;;;;;5.60;5.20;;;;;;;;;;5103949;28;25539;-58
2021/09/13 06:08:10;;;;;;;4.70;4.40;;;;;;;;;;5104608;28;24433;-58
2021/09/13 06:10:36;;;;;;;5.17;4.87;;;;;;;;;;5104791;28;25005;-58
2021/09/13 06:13:01;;;;;;;4.60;4.30;;;;;;;;;;5104766;28;24472;-59
2021/09/13 06:15:26;;;;;;;5.90;5.40;;;;;;;;;;5103099;28;24413;-58
2021/09/13 06:17:51;;;;;;;4.93;4.60;;;;;;;;;;5098945;28;24477;-59
2021/09/13 06:20:16;;;;;;;5.80;5.40;;;;;;;;;;5102069;28;24806;-59
2021/09/13 06:22:42;;;;;;;5.27;4.87;;;;;;;;;;5101808;28;25016;-59
2021/09/13 06:25:07;;;;;;;5.00;4.70;;;;;;;;;;5098373;27;24418;-59
2021/09/13 06:27:32;;;;;;;5.10;4.70;;;;;;;;;;5090061;28;24414;-59
2021/09/13 06:29:57;;;;;;;5.70;5.20;;;;;;;;;;5098758;28;24797;-59
2021/09/13 06:32:23;;;;;;;6.03;5.63;;;;;;;;;;5084974;28;24760;-59
2021/09/13 06:34:48;;;;;;;6.73;6.23;;;;;;;;;;5099643;27;24563;-60
2021/09/13 06:37:14;;;;;;;7.10;6.50;;;;;;;;;;5103166;28;24418;-59
2021/09/13 06:39:39;;;;;;;7.70;7.05;;;;;;;;;;5097946;28;24521;-60
2021/09/13 06:42:05;;;;;;;6.60;6.20;;;;;;;;;;5086822;28;24429;-59
2021/09/13 06:44:30;;;;;;;8.60;8.00;;;;;;;;;;5098746;28;24418;-59
2021/09/13 06:47:09;;;;;;;6.53;6.13;;;;;;;;;;5097829;28;24518;-59
2021/09/13 06:49:35;;;;;;;6.20;5.70;;;;;;;;;;5095578;28;24441;-59
2021/09/13 06:52:01;;;;;;;7.03;6.53;;;;;;;;;;5090594;28;24406;-58
2021/09/13 06:54:27;;;;;;;7.43;6.93;;;;;;;;;;5096277;28;24553;-59
2021/09/13 06:56:53;;;;;;;5.97;5.57;;;;;;;;;;5107343;28;24569;-58
2021/09/13 06:59:19;;;;;;;7.55;6.95;;;;;;;;;;5100439;27;24402;-58
2021/09/13 07:01:44;;;;;;;6.10;5.70;;;;;;;;;;5126802;27;24418;-59
2021/09/13 07:04:09;;;;;;;7.70;7.10;;;;;;;;;;5127689;27;24453;-59
2021/09/13 07:06:34;;;;;;;6.73;6.23;;;;;;;;;;5127647;27;24420;-59
2021/09/13 07:08:59;;;;;;;5.60;5.20;;;;;;;;;;5128020;27;24420;-59
2021/09/13 07:11:25;;;;;;;6.17;5.57;;;;;;;;;;5127427;27;24743;-59
2021/09/13 07:13:50;;;;;;;6.68;6.18;;;;;;;;;;5125858;27;24439;-59
2021/09/13 07:16:16;;;;;;;7.30;6.70;;;;;;;;;;5127822;27;24907;-59
2021/09/13 07:18:41;;;;;;;6.00;5.60;;;;;;;;;;5127322;28;24397;-59
2021/09/13 07:21:06;;;;;;;8.23;7.53;;;;;;;;;;5127571;28;24389;-59
2021/09/13 07:23:31;;;;;;;7.97;7.27;;;;;;;;;;5114732;28;24447;-59
2021/09/13 07:25:56;;;;;;;7.13;6.53;;;;;;;;;;5107028;28;24435;-59
2021/09/13 07:28:22;;;;;;;5.60;5.10;;;;;;;;;;5106782;28;24494;-59
2021/09/13 07:30:47;;;;;;;7.65;7.05;;;;;;;;;;5111826;27;24405;-59
2021/09/13 07:33:12;;;;;;;6.90;6.40;;;;;;;;;;5131223;27;24421;-59
2021/09/13 07:35:38;;;;;;;8.97;8.27;;;;;;;;;;5131363;27;24488;-60
2021/09/13 07:38:03;;;;;;;6.10;5.70;;;;;;;;;;5130049;27;24739;-60
2021/09/13 07:40:28;;;;;;;6.50;6.10;;;;;;;;;;5125021;27;24973;-59
2021/09/13 07:42:53;;;;;;;4.90;4.60;;;;;;;;;;5127366;27;24435;-59
2021/09/13 07:45:18;;;;;;;6.37;5.87;;;;;;;;;;5131537;27;24476;-59
2021/09/13 07:47:43;;;;;;;7.25;6.65;;;;;;;;;;5130645;27;24397;-59
2021/09/13 07:50:09;;;;;;;8.52;7.82;;;;;;;;;;5130392;27;24994;-59
2021/09/13 07:52:34;;;;;;;6.90;6.40;;;;;;;;;;5131485;27;24373;-59
2021/09/13 07:54:59;;;;;;;7.60;6.90;;;;;;;;;;5131303;27;25003;-59
2021/09/13 07:57:25;;;;;;;5.37;4.97;;;;;;;;;;5126966;27;24497;-59
2021/09/13 07:59:50;;;;;;;6.50;6.00;;;;;;;;;;5110576;28;24416;-59
2021/09/13 08:02:15;;;;;;;7.80;7.10;;;;;;;;;;5111650;27;24402;-59
2021/09/13 08:04:40;;;;;;;8.02;7.43;;;;;;;;;;5110609;28;24928;-59
2021/09/13 08:07:06;;;;;;;6.95;6.45;;;;;;;;;;5110580;28;24446;-59
2021/09/13 08:09:31;;;;;;;8.43;7.73;;;;;;;;;;5110554;28;25018;-60
2021/09/13 08:11:56;;;;;;;5.40;5.00;;;;;;;;;;5110798;28;24477;-60
2021/09/13 08:14:21;;;;;;;7.70;7.10;;;;;;;;;;5111364;27;24413;-59
2021/09/13 08:16:47;;;;;;;7.93;7.32;;;;;;;;;;5110694;28;24462;-60
2021/09/13 08:19:12;;;;;;;7.70;7.10;;;;;;;;;;5110574;28;24933;-60
2021/09/13 08:21:40;;;;;;;8.23;7.53;;;;;;;;;;5110535;28;24386;-60
2021/09/13 08:24:05;;;;;;;9.82;9.00;;;;;;;;;;5111364;27;24497;-59
2021/09/13 08:26:30;;;;;;;9.00;8.30;;;;;;;;;;5110363;28;24512;-59
2021/09/13 08:28:56;;;;;;;8.33;7.63;;;;;;;;;;5110243;28;24763;-59
2021/09/13 08:31:21;;;;;;;10.13;9.33;;;;;;;;;;5109896;28;24405;-59
2021/09/13 08:33:46;;;;;;;9.15;8.45;;;;;;;;;;5110150;28;25391;-59
2021/09/13 08:36:11;;;;;;;7.20;6.70;;;;;;;;;;5111052;27;24402;-59
2021/09/13 08:38:36;;;;;;;6.70;6.20;;;;;;;;;;5110113;28;24389;-59
2021/09/13 08:41:02;;;;;;;6.88;6.28;;;;;;;;;;5109212;28;24400;-60
2021/09/13 08:43:27;;;;;;;6.82;6.32;;;;;;;;;;5108603;28;24437;-60
2021/09/13 08:45:56;;;;;;;6.63;6.13;;;;;;;;;;5110092;28;24946;-60
2021/09/13 08:48:46;;;;;;;9.30;8.55;;;;;;;;;;5126704;27;24508;-60
2021/09/13 08:53:39;;;;;;;7.80;7.20;;;;;;;;;;5130329;27;24383;-60
2021/09/13 08:56:07;;;;;;;7.07;6.47;;;;;;;;;;5127805;27;25193;-59
2021/09/13 08:58:33;;;;;;;6.93;6.40;;;;;;;;;;5107164;28;24725;-60
2021/09/13 09:00:58;;;;;;;10.82;9.93;;;;;;;;;;5109919;27;25240;-59
2021/09/13 09:03:23;;;;;;;9.40;8.60;;;;;;;;;;5109188;28;24401;-59
2021/09/13 09:05:50;;;;;;;8.05;7.35;;;;;;;;;;5109339;28;25213;-59
2021/09/13 09:08:28;;;;;;;6.20;5.70;;;;;;;;;;5108589;28;24402;-59
2021/09/13 09:10:55;;;;;;;7.63;7.03;;;;;;;;;;5109309;27;24467;-60
2021/09/13 09:13:20;;;;;;;5.80;5.40;;;;;;;;;;5109257;28;24916;-59
2021/09/13 09:15:56;;;;;;;7.80;7.20;;;;;;;;;;5109347;28;24915;-59
2021/09/13 09:18:22;;;;;;;6.85;6.38;;;;;;;;;;5109361;28;24401;-60
2021/09/13 09:20:47;;;;;;;7.63;7.03;;;;;;;;;;5108785;28;24409;-60
2021/09/13 09:23:12;;;;;;;11.83;10.83;;;;;;;;;;5118622;27;24973;-60
2021/09/13 09:25:39;;;;;;;9.30;8.50;;;;;;;;;;5129532;27;24408;-60
2021/09/13 09:28:06;;;;;;;7.30;6.70;;;;;;;;;;5129607;27;24381;-62
2021/09/13 09:30:32;;;;;;;8.43;7.78;;;;;;;;;;5129351;27;24522;-58
2021/09/13 09:33:03;;;;;;;7.10;6.50;;;;;;;;;;5129477;27;24480;-57
2021/09/13 09:35:38;;;;;;;9.95;9.15;;;;;;;;;;5127244;27;24524;-58
2021/09/13 09:38:03;;;;;;;9.18;8.48;;;;;;;;;;5127445;27;24394;-58
2021/09/13 09:40:29;;;;;;;10.20;9.30;;;;;;;;;;5107863;28;24505;-58
2021/09/13 09:42:55;;;;;;;7.00;6.47;;;;;;;;;;5108989;28;24390;-60
2021/09/13 09:45:20;;;;;;;7.50;7.00;;;;;;;;;;5110241;27;24390;-60
2021/09/13 09:48:02;;;;;;;7.40;6.80;;;;;;;;;;5108709;28;24409;-60
2021/09/13 09:50:29;;;;;;;6.70;6.20;;;;;;;;;;5108666;28;24863;-60
2021/09/13 09:52:54;;;;;;;9.85;8.95;;;;;;;;;;5107877;28;24466;-60
2021/09/13 09:55:20;;;;;;;6.50;6.00;;;;;;;;;;5108254;28;24752;-58
2021/09/13 09:58:05;;;;;;;9.07;8.37;;;;;;;;;;5107769;28;24496;-59
2021/09/13 10:00:31;;;;;;;8.67;7.97;;;;;;;;;;5087628;28;24749;-59
2021/09/13 10:02:56;;;;;;;9.17;8.37;;;;;;;;;;5087898;28;24390;-59
2021/09/13 10:05:25;;;;;;;7.67;7.07;;;;;;;;;;5087579;28;24403;-59
2021/09/13 10:07:50;;;;;;;11.00;10.10;;;;;;;;;;5101840;28;24467;-59
2021/09/13 10:10:16;;;;;;;9.27;8.57;;;;;;;;;;5121935;27;24437;-59
2021/09/13 10:12:42;;;;;;;8.33;7.73;;;;;;;;;;5128389;27;24401;-59
2021/09/13 10:15:08;;;;;;;6.30;5.80;;;;;;;;;;5128761;27;24449;-59
2021/09/13 10:17:33;;;;;;;6.00;5.50;;;;;;;;;;5127986;27;24377;-59
2021/09/13 10:20:00;;;;;;;7.63;7.03;;;;;;;;;;5128472;27;24983;-58
2021/09/13 10:22:25;;;;;;;9.25;8.65;;;;;;;;;;5126370;27;24980;-58
2021/09/13 10:24:50;;;;;;;9.70;8.90;;;;;;;;;;5128397;27;24408;-59
2021/09/13 10:27:19;;;;;;;10.37;9.60;;;;;;;;;;5128282;27;24474;-59
2021/09/13 10:29:44;;;;;;;8.15;7.55;;;;;;;;;;5128076;27;24511;-59
2021/09/13 10:32:14;;;;;;;8.80;8.10;;;;;;;;;;5126432;27;24627;-59
2021/09/13 10:34:39;;;;;;;9.30;8.60;;;;;;;;;;5125685;27;24751;-59
2021/09/13 10:37:06;;;;;;;7.20;6.70;;;;;;;;;;5107850;28;24405;-59
2021/09/13 10:39:50;;;;;;;8.03;7.43;;;;;;;;;;5107390;28;24617;-63
2021/09/13 10:42:28;;;;;;;7.10;6.60;;;;;;;;;;5107662;28;24482;-59
2021/09/13 10:45:09;;;;;;;7.78;7.07;;;;;;;;;;5108539;27;24436;-59
2021/09/13 10:47:34;;;;;;;6.80;6.30;;;;;;;;;;5107456;28;24433;-60
2021/09/13 10:50:16;;;;;;;5.68;5.28;;;;;;;;;;5107837;28;24445;-60
2021/09/13 10:52:41;;;;;;;8.80;8.10;;;;;;;;;;5107239;28;24385;-59
2021/09/13 10:55:09;;;;;;;10.10;9.20;;;;;;;;;;5107601;28;24421;-59
2021/09/13 10:57:53;;;;;;;6.85;6.25;;;;;;;;;;5108030;28;24405;-60
2021/09/13 11:00:37;;;;;;;7.25;6.65;;;;;;;;;;5107653;28;24394;-59
2021/09/13 11:06:03;;;;;;;9.52;8.63;;;;;;;;;;5093530;28;25020;-59
2021/09/13 11:08:29;;;;;;;6.55;6.05;;;;;;;;;;5107286;28;24424;-60
2021/09/13 11:10:54;;;;;;;6.43;5.93;;;;;;;;;;5120354;27;24405;-59
2021/09/13 11:13:19;;;;;;;8.97;7.73;;;;;;;;;;5127581;27;24381;-59
2021/09/13 11:15:47;;;;;;;7.85;7.25;;;;;;;;;;5127523;27;24488;-59
2021/09/13 11:18:29;;;;;;;7.20;6.60;;;;;;;;;;5128040;27;24424;-60
2021/09/13 11:20:57;;;;;;;8.27;7.68;;;;;;;;;;5125767;28;24462;-60
2021/09/13 11:23:32;;;;;;;8.00;7.40;;;;;;;;;;5118205;28;24409;-60
2021/09/13 11:25:57;;;;;;;8.43;7.72;;;;;;;;;;5106964;28;24400;-60
2021/09/13 11:28:22;;;;;;;6.95;6.45;;;;;;;;;;5107393;28;24449;-60
2021/09/13 11:30:48;;;;;;;5.68;5.28;;;;;;;;;;5106905;28;24517;-59
2021/09/13 11:33:13;;;;;;;8.60;7.90;;;;;;;;;;5107437;28;25021;-58
2021/09/13 11:35:38;;;;;;;6.85;6.30;;;;;;;;;;5107140;28;24413;-59
2021/09/13 11:38:03;;;;;;;6.60;6.20;;;;;;;;;;5107168;28;24401;-60
2021/09/13 11:40:28;;;;;;;8.60;7.80;;;;;;;;;;5106922;28;24490;-60
2021/09/13 11:42:53;;;;;;;8.50;7.80;;;;;;;;;;5107347;28;24787;-59
2021/09/13 11:45:18;;;;;;;8.33;7.73;;;;;;;;;;5107632;28;24851;-59
2021/09/13 11:47:44;;;;;;;7.70;7.10;;;;;;;;;;5106472;28;24951;-59
2021/09/13 11:50:09;;;;;;;7.40;6.80;;;;;;;;;;5107039;28;24438;-59
2021/09/13 11:52:36;;;;;;;6.75;6.15;;;;;;;;;;5106407;28;24434;-59
2021/09/13 11:55:13;;;;;;;7.45;6.85;;;;;;;;;;5106741;28;24421;-59
2021/09/13 11:57:42;;;;;;;7.85;7.25;;;;;;;;;;5106371;28;24474;-59
2021/09/13 12:00:09;;;;;;;7.60;6.90;;;;;;;;;;5105846;28;24432;-60
2021/09/13 12:02:34;;;;;;;7.00;6.50;;;;;;;;;;5107020;28;24404;-60
2021/09/13 12:33:07;;;;;;;8.43;7.83;;;;;;;;;;5040157;27;2280832;-59
2021/09/13 12:35:37;;;;;;;7.57;7.07;;;;;;;;;;5119995;27;24885;-60
2021/09/13 12:38:04;;;;;;;6.65;6.25;;;;;;;;;;5104801;28;24430;-59
2021/09/13 12:40:29;;;;;;;10.43;9.63;;;;;;;;;;5103022;28;24412;-61
2021/09/13 12:42:56;;;;;;;7.60;7.10;;;;;;;;;;5120218;28;24414;-60
2021/09/13 12:45:29;;;;;;;7.47;6.97;;;;;;;;;;5119641;27;24410;-61
2021/09/13 12:47:56;;;;;;;7.80;7.10;;;;;;;;;;5120651;27;25012;-60
2021/09/13 12:50:27;;;;;;;7.18;6.65;;;;;;;;;;5119609;27;24467;-61
2021/09/13 12:52:52;;;;;;;7.50;6.90;;;;;;;;;;5107587;28;24663;-60
2021/09/13 12:55:21;;;;;;;7.90;7.30;;;;;;;;;;5119282;28;24821;-59
2021/09/13 12:57:47;;;;;;;5.97;5.57;;;;;;;;;;5119938;28;25109;-59
2021/09/13 13:00:13;;;;;;;8.90;8.20;;;;;;;;;;5119802;27;24418;-60
2021/09/13 13:02:38;;;;;;;6.50;6.10;;;;;;;;;;5104615;27;25302;-60
2021/09/13 13:05:04;;;;;;;7.30;6.70;;;;;;;;;;5101079;28;24386;-60
2021/09/13 13:07:30;;;;;;;7.47;6.70;;;;;;;;;;5120062;27;24424;-61
2021/09/13 13:09:55;;;;;;;8.10;7.50;;;;;;;;;;5119074;28;25027;-60
2021/09/13 13:12:21;;;;;;;7.03;6.63;;;;;;;;;;5110986;28;24520;-61
2021/09/13 13:14:46;;;;;;;5.03;4.72;;;;;;;;;;5119396;27;24437;-60
2021/09/13 13:17:11;;;;;;;6.30;5.70;;;;;;;;;;5115369;28;24425;-61
2021/09/13 13:19:36;;;;;;;5.50;5.20;;;;;;;;;;5108094;28;24445;-60
2021/09/13 13:22:02;;;;;;;5.90;5.50;;;;;;;;;;5106552;28;24448;-61
2021/09/13 13:24:27;;;;;;;6.30;5.80;;;;;;;;;;5115391;27;24985;-60
2021/09/13 13:26:54;;;;;;;5.90;5.40;;;;;;;;;;5110846;28;24409;-60
2021/09/13 13:29:21;;;;;;;4.20;4.00;;;;;;;;;;5107566;28;24971;-61
2021/09/13 13:31:46;;;;;;;4.97;4.68;;;;;;;;;;5091671;28;24437;-59
2021/09/13 13:34:11;;;;;;;6.40;5.90;;;;;;;;;;5109502;27;24711;-60
2021/09/13 13:36:37;;;;;;;7.22;6.55;;;;;;;;;;5126617;27;25170;-60
2021/09/13 13:39:03;;;;;;;7.30;6.80;;;;;;;;;;5126093;27;24972;-60
2021/09/13 13:41:28;;;;;;;5.90;5.50;;;;;;;;;;5106295;27;24591;-60
2021/09/13 13:43:53;;;;;;;5.80;5.30;;;;;;;;;;5116736;27;24441;-60
2021/09/13 13:46:18;;;;;;;6.80;6.30;;;;;;;;;;5110888;27;24405;-61
2021/09/13 13:48:43;;;;;;;6.35;5.95;;;;;;;;;;5122249;27;24541;-60
2021/09/13 13:51:08;;;;;;;5.93;5.53;;;;;;;;;;5105795;28;25027;-61
2021/09/13 13:53:33;;;;;;;7.20;6.60;;;;;;;;;;5121382;27;24466;-60
2021/09/13 13:55:59;;;;;;;5.90;5.50;;;;;;;;;;5111853;27;24956;-60
2021/09/13 13:58:24;;;;;;;5.60;5.20;;;;;;;;;;5121644;27;24451;-60
2021/09/13 14:00:50;;;;;;;6.90;6.30;;;;;;;;;;5119718;27;24521;-60
2021/09/13 14:03:15;;;;;;;6.68;6.20;;;;;;;;;;5107672;27;24402;-60
2021/09/13 14:05:40;;;;;;;6.00;5.60;;;;;;;;;;5109704;27;25104;-59
2021/09/13 14:08:06;;;;;;;6.60;6.10;;;;;;;;;;5125494;27;24512;-60
2021/09/13 14:10:31;;;;;;;7.00;6.50;;;;;;;;;;5125785;27;24404;-60
2021/09/13 14:12:58;;;;;;;7.30;6.60;;;;;;;;;;5116067;27;25039;-60
2021/09/13 14:15:23;;;;;;;8.00;7.30;;;;;;;;;;5125586;27;24412;-60
2021/09/13 14:17:48;;;;;;;6.10;5.70;;;;;;;;;;5125466;27;24417;-60
2021/09/13 14:20:13;;;;;;;6.50;6.10;;;;;;;;;;5104924;28;24404;-60
2021/09/13 14:22:38;;;;;;;7.65;6.95;;;;;;;;;;5110896;27;24421;-60
2021/09/13 14:25:04;;;;;;;5.70;5.40;;;;;;;;;;5124751;27;24986;-60
2021/09/13 14:27:30;;;;;;;6.07;5.73;;;;;;;;;;5119101;27;25121;-61
2021/09/13 14:29:55;;;;;;;5.00;4.70;;;;;;;;;;5108326;27;24424;-61
2021/09/13 14:32:21;;;;;;;6.00;5.60;;;;;;;;;;5124855;27;24564;-60
2021/09/13 14:34:46;;;;;;;7.83;7.23;;;;;;;;;;5104190;28;24404;-61
2021/09/13 14:37:11;;;;;;;6.80;6.40;;;;;;;;;;5111462;27;25235;-60
2021/09/13 14:39:36;;;;;;;7.90;7.30;;;;;;;;;;5125509;27;24492;-60
2021/09/13 14:42:02;;;;;;;6.50;6.10;;;;;;;;;;5121454;27;24532;-60
2021/09/13 14:44:27;;;;;;;6.20;5.80;;;;;;;;;;5120913;27;24496;-60
2021/09/13 14:46:52;;;;;;;5.00;4.70;;;;;;;;;;5104840;27;24520;-60
2021/09/13 14:49:18;;;;;;;5.97;5.57;;;;;;;;;;5110431;27;24466;-59
2021/09/13 14:51:43;;;;;;;8.75;8.05;;;;;;;;;;5124706;27;24425;-60
2021/09/13 14:54:09;;;;;;;8.60;7.80;;;;;;;;;;5124600;27;24486;-59
2021/09/13 14:56:34;;;;;;;7.50;7.00;;;;;;;;;;5124849;27;24389;-59
2021/09/13 14:59:01;;;;;;;8.75;8.15;;;;;;;;;;5115598;27;24509;-59
2021/09/13 15:01:26;;;;;;;8.13;7.53;;;;;;;;;;5104370;28;24394;-59
2021/09/13 15:03:51;;;;;;;8.30;7.80;;;;;;;;;;5124675;27;24556;-60
2021/09/13 15:06:16;;;;;;;7.57;7.07;;;;;;;;;;5121996;27;24497;-60
2021/09/13 15:08:41;;;;;;;8.40;7.80;;;;;;;;;;5124811;27;24416;-60
2021/09/13 15:11:06;;;;;;;7.40;7.00;;;;;;;;;;5124231;27;24488;-60
2021/09/13 15:13:31;;;;;;;9.10;8.40;;;;;;;;;;5123479;27;24779;-60